sensor_id;sensor_type;location;lat;lon;timestamp;P1;durP1;ratioP1;P2;durP2;ratioP2
20531;SDS011;10424;52.102;8.084;2023-10-13T00:01:02;59.47;;;31.02;;
20531;SDS011;10424;52.102;8.084;2023-10-13T00:03:32;55.95;;;28.33;;
20531;SDS011;10424;52.102;8.084;2023-10-13T00:05:59;59.85;;;31.30;;
20531;SDS011;10424;52.102;8.084;2023-10-13T00:08:28;62.42;;;31.02;;
20531;SDS011;10424;52.102;8.084;2023-10-13T00:10:57;58.95;;;32.22;;
20531;SDS011;10424;52.102;8.084;2023-10-13T00:13:26;61.53;;;31.20;;
20531;SDS011;10424;52.102;8.084;2023-10-13T00:15:56;59.17;;;30.40;;
20531;SDS011;10424;52.102;8.084;2023-10-13T00:18:24;52.95;;;28.55;;
20531;SDS011;10424;52.102;8.084;2023-10-13T00:20:53;60.30;;;31.80;;
20531;SDS011;10424;52.102;8.084;2023-10-13T00:23:22;62.25;;;31.10;;
20531;SDS011;10424;52.102;8.084;2023-10-13T00:25:52;58.47;;;31.50;;
20531;SDS011;10424;52.102;8.084;2023-10-13T00:28:30;62.30;;;31.83;;
20531;SDS011;10424;52.102;8.084;2023-10-13T00:31:12;58.85;;;31.65;;
20531;SDS011;10424;52.102;8.084;2023-10-13T00:33:39;56.70;;;30.70;;
20531;SDS011;10424;52.102;8.084;2023-10-13T00:36:08;53.47;;;29.88;;
20531;SDS011;10424;52.102;8.084;2023-10-13T00:38:44;60.83;;;30.15;;
20531;SDS011;10424;52.102;8.084;2023-10-13T00:41:13;61.22;;;31.13;;
20531;SDS011;10424;52.102;8.084;2023-10-13T00:43:46;46.92;;;23.58;;
20531;SDS011;10424;52.102;8.084;2023-10-13T00:46:27;53.20;;;27.38;;
20531;SDS011;10424;52.102;8.084;2023-10-13T00:48:58;56.53;;;29.33;;
20531;SDS011;10424;52.102;8.084;2023-10-13T00:51:25;52.35;;;27.17;;
20531;SDS011;10424;52.102;8.084;2023-10-13T00:54:01;50.03;;;27.30;;
20531;SDS011;10424;52.102;8.084;2023-10-13T00:56:31;54.20;;;28.27;;
20531;SDS011;10424;52.102;8.084;2023-10-13T00:59:00;47.78;;;26.13;;
20531;SDS011;10424;52.102;8.084;2023-10-13T01:01:28;54.15;;;25.30;;
20531;SDS011;10424;52.102;8.084;2023-10-13T01:03:58;48.60;;;25.88;;
20531;SDS011;10424;52.102;8.084;2023-10-13T01:06:25;41.80;;;22.25;;
20531;SDS011;10424;52.102;8.084;2023-10-13T01:08:56;45.58;;;24.63;;
20531;SDS011;10424;52.102;8.084;2023-10-13T01:11:23;44.22;;;26.45;;
20531;SDS011;10424;52.102;8.084;2023-10-13T01:13:52;47.47;;;25.08;;
20531;SDS011;10424;52.102;8.084;2023-10-13T01:16:20;35.42;;;20.48;;
20531;SDS011;10424;52.102;8.084;2023-10-13T01:18:48;46.08;;;25.75;;
20531;SDS011;10424;52.102;8.084;2023-10-13T01:21:15;44.58;;;23.90;;
20531;SDS011;10424;52.102;8.084;2023-10-13T01:23:47;44.70;;;25.98;;
20531;SDS011;10424;52.102;8.084;2023-10-13T01:26:15;39.17;;;20.48;;
20531;SDS011;10424;52.102;8.084;2023-10-13T01:28:49;39.63;;;21.05;;
20531;SDS011;10424;52.102;8.084;2023-10-13T01:31:16;42.17;;;23.88;;
20531;SDS011;10424;52.102;8.084;2023-10-13T01:33:55;45.60;;;24.02;;
20531;SDS011;10424;52.102;8.084;2023-10-13T01:36:24;37.40;;;21.45;;
20531;SDS011;10424;52.102;8.084;2023-10-13T01:38:53;39.75;;;22.73;;
20531;SDS011;10424;52.102;8.084;2023-10-13T01:41:20;40.78;;;22.42;;
20531;SDS011;10424;52.102;8.084;2023-10-13T01:43:48;37.78;;;22.08;;
20531;SDS011;10424;52.102;8.084;2023-10-13T01:46:14;42.03;;;23.17;;
20531;SDS011;10424;52.102;8.084;2023-10-13T01:48:44;35.30;;;19.55;;
20531;SDS011;10424;52.102;8.084;2023-10-13T01:51:11;40.28;;;20.95;;
20531;SDS011;10424;52.102;8.084;2023-10-13T01:53:39;38.55;;;21.67;;
20531;SDS011;10424;52.102;8.084;2023-10-13T01:56:08;39.90;;;19.88;;
20531;SDS011;10424;52.102;8.084;2023-10-13T01:58:39;36.00;;;19.40;;
20531;SDS011;10424;52.102;8.084;2023-10-13T02:01:07;39.78;;;21.95;;
20531;SDS011;10424;52.102;8.084;2023-10-13T02:03:35;41.45;;;21.45;;
20531;SDS011;10424;52.102;8.084;2023-10-13T02:06:07;33.70;;;20.83;;
20531;SDS011;10424;52.102;8.084;2023-10-13T02:08:41;36.63;;;19.92;;
20531;SDS011;10424;52.102;8.084;2023-10-13T02:11:10;36.58;;;19.80;;
20531;SDS011;10424;52.102;8.084;2023-10-13T02:13:37;34.20;;;19.98;;
20531;SDS011;10424;52.102;8.084;2023-10-13T02:16:13;31.42;;;18.17;;
20531;SDS011;10424;52.102;8.084;2023-10-13T02:18:44;36.80;;;18.92;;
20531;SDS011;10424;52.102;8.084;2023-10-13T02:21:16;36.40;;;19.17;;
20531;SDS011;10424;52.102;8.084;2023-10-13T02:23:42;35.28;;;19.60;;
20531;SDS011;10424;52.102;8.084;2023-10-13T02:26:12;32.83;;;18.58;;
20531;SDS011;10424;52.102;8.084;2023-10-13T02:28:39;33.13;;;18.77;;
20531;SDS011;10424;52.102;8.084;2023-10-13T02:31:07;34.67;;;19.73;;
20531;SDS011;10424;52.102;8.084;2023-10-13T02:33:33;29.88;;;18.05;;
20531;SDS011;10424;52.102;8.084;2023-10-13T02:36:09;33.95;;;18.90;;
20531;SDS011;10424;52.102;8.084;2023-10-13T02:38:37;26.35;;;14.10;;
20531;SDS011;10424;52.102;8.084;2023-10-13T02:41:12;31.15;;;18.48;;
20531;SDS011;10424;52.102;8.084;2023-10-13T02:43:45;32.72;;;17.88;;
20531;SDS011;10424;52.102;8.084;2023-10-13T02:46:11;26.63;;;15.38;;
20531;SDS011;10424;52.102;8.084;2023-10-13T02:48:41;31.92;;;18.83;;
20531;SDS011;10424;52.102;8.084;2023-10-13T02:51:11;29.48;;;16.20;;
20531;SDS011;10424;52.102;8.084;2023-10-13T02:53:50;32.08;;;18.80;;
20531;SDS011;10424;52.102;8.084;2023-10-13T02:56:19;29.83;;;16.65;;
20531;SDS011;10424;52.102;8.084;2023-10-13T02:58:47;32.33;;;16.83;;
20531;SDS011;10424;52.102;8.084;2023-10-13T03:01:18;29.00;;;16.60;;
20531;SDS011;10424;52.102;8.084;2023-10-13T03:03:47;28.42;;;15.02;;
20531;SDS011;10424;52.102;8.084;2023-10-13T03:06:15;29.88;;;15.10;;
20531;SDS011;10424;52.102;8.084;2023-10-13T03:08:46;28.75;;;17.65;;
20531;SDS011;10424;52.102;8.084;2023-10-13T03:11:12;35.30;;;17.98;;
20531;SDS011;10424;52.102;8.084;2023-10-13T03:13:47;29.55;;;16.75;;
20531;SDS011;10424;52.102;8.084;2023-10-13T03:16:16;26.65;;;17.30;;
20531;SDS011;10424;52.102;8.084;2023-10-13T03:18:44;28.80;;;15.45;;
20531;SDS011;10424;52.102;8.084;2023-10-13T03:21:19;28.70;;;16.20;;
20531;SDS011;10424;52.102;8.084;2023-10-13T03:23:54;29.90;;;17.45;;
20531;SDS011;10424;52.102;8.084;2023-10-13T03:26:21;29.02;;;16.38;;
20531;SDS011;10424;52.102;8.084;2023-10-13T03:28:49;33.28;;;16.73;;
20531;SDS011;10424;52.102;8.084;2023-10-13T03:31:19;28.75;;;16.77;;
20531;SDS011;10424;52.102;8.084;2023-10-13T03:33:52;27.60;;;16.35;;
20531;SDS011;10424;52.102;8.084;2023-10-13T03:36:25;30.25;;;17.05;;
20531;SDS011;10424;52.102;8.084;2023-10-13T03:39:10;28.90;;;17.38;;
20531;SDS011;10424;52.102;8.084;2023-10-13T03:41:39;29.55;;;17.08;;
20531;SDS011;10424;52.102;8.084;2023-10-13T03:44:07;32.85;;;16.95;;
20531;SDS011;10424;52.102;8.084;2023-10-13T03:46:40;30.30;;;17.42;;
20531;SDS011;10424;52.102;8.084;2023-10-13T03:49:07;30.90;;;16.67;;
20531;SDS011;10424;52.102;8.084;2023-10-13T03:51:38;34.92;;;17.42;;
20531;SDS011;10424;52.102;8.084;2023-10-13T03:54:05;26.88;;;17.10;;
20531;SDS011;10424;52.102;8.084;2023-10-13T03:56:33;29.88;;;17.75;;
20531;SDS011;10424;52.102;8.084;2023-10-13T03:59:05;30.92;;;17.48;;
20531;SDS011;10424;52.102;8.084;2023-10-13T04:01:36;29.77;;;17.00;;
20531;SDS011;10424;52.102;8.084;2023-10-13T04:04:11;33.53;;;16.00;;
20531;SDS011;10424;52.102;8.084;2023-10-13T04:06:40;30.05;;;17.08;;
20531;SDS011;10424;52.102;8.084;2023-10-13T04:09:20;26.50;;;16.50;;
20531;SDS011;10424;52.102;8.084;2023-10-13T04:12:04;26.20;;;16.23;;
20531;SDS011;10424;52.102;8.084;2023-10-13T04:15:06;34.17;;;17.13;;
20531;SDS011;10424;52.102;8.084;2023-10-13T04:17:50;29.48;;;16.17;;
20531;SDS011;10424;52.102;8.084;2023-10-13T04:20:17;31.45;;;17.13;;
20531;SDS011;10424;52.102;8.084;2023-10-13T04:23:03;33.08;;;16.90;;
20531;SDS011;10424;52.102;8.084;2023-10-13T04:25:51;31.15;;;17.40;;
20531;SDS011;10424;52.102;8.084;2023-10-13T04:28:33;29.05;;;17.42;;
20531;SDS011;10424;52.102;8.084;2023-10-13T04:31:03;32.50;;;18.42;;
20531;SDS011;10424;52.102;8.084;2023-10-13T04:33:38;30.30;;;17.02;;
20531;SDS011;10424;52.102;8.084;2023-10-13T04:36:19;31.85;;;16.48;;
20531;SDS011;10424;52.102;8.084;2023-10-13T04:39:01;30.67;;;17.45;;
20531;SDS011;10424;52.102;8.084;2023-10-13T04:41:35;28.38;;;16.92;;
20531;SDS011;10424;52.102;8.084;2023-10-13T04:44:04;34.42;;;16.73;;
20531;SDS011;10424;52.102;8.084;2023-10-13T04:46:51;27.05;;;16.63;;
20531;SDS011;10424;52.102;8.084;2023-10-13T04:49:39;28.85;;;16.13;;
20531;SDS011;10424;52.102;8.084;2023-10-13T04:52:17;29.00;;;16.65;;
20531;SDS011;10424;52.102;8.084;2023-10-13T04:55:02;30.52;;;17.70;;
20531;SDS011;10424;52.102;8.084;2023-10-13T04:57:42;27.15;;;17.27;;
20531;SDS011;10424;52.102;8.084;2023-10-13T05:00:13;32.72;;;16.85;;
20531;SDS011;10424;52.102;8.084;2023-10-13T05:03:03;26.23;;;15.50;;
20531;SDS011;10424;52.102;8.084;2023-10-13T05:06:06;26.38;;;15.27;;
20531;SDS011;10424;52.102;8.084;2023-10-13T05:08:56;23.65;;;14.55;;
20531;SDS011;10424;52.102;8.084;2023-10-13T05:11:41;24.42;;;14.05;;
20531;SDS011;10424;52.102;8.084;2023-10-13T05:14:22;21.23;;;12.95;;
20531;SDS011;10424;52.102;8.084;2023-10-13T05:17:19;22.33;;;13.60;;
20531;SDS011;10424;52.102;8.084;2023-10-13T05:20:04;20.50;;;11.02;;
20531;SDS011;10424;52.102;8.084;2023-10-13T05:22:50;20.10;;;11.57;;
20531;SDS011;10424;52.102;8.084;2023-10-13T05:25:35;19.13;;;11.07;;
20531;SDS011;10424;52.102;8.084;2023-10-13T05:28:20;17.67;;;11.20;;
20531;SDS011;10424;52.102;8.084;2023-10-13T05:31:06;17.42;;;10.95;;
20531;SDS011;10424;52.102;8.084;2023-10-13T05:34:02;15.63;;;10.60;;
20531;SDS011;10424;52.102;8.084;2023-10-13T05:36:47;17.35;;;10.68;;
20531;SDS011;10424;52.102;8.084;2023-10-13T05:39:33;19.52;;;11.43;;
20531;SDS011;10424;52.102;8.084;2023-10-13T05:42:18;17.08;;;10.68;;
20531;SDS011;10424;52.102;8.084;2023-10-13T05:45:03;20.98;;;10.93;;
20531;SDS011;10424;52.102;8.084;2023-10-13T05:47:48;18.73;;;12.15;;
20531;SDS011;10424;52.102;8.084;2023-10-13T05:50:27;19.20;;;11.50;;
20531;SDS011;10424;52.102;8.084;2023-10-13T05:53:12;23.48;;;12.60;;
20531;SDS011;10424;52.102;8.084;2023-10-13T05:56:01;23.15;;;13.05;;
20531;SDS011;10424;52.102;8.084;2023-10-13T05:58:46;24.95;;;13.02;;
20531;SDS011;10424;52.102;8.084;2023-10-13T06:01:31;21.10;;;13.20;;
20531;SDS011;10424;52.102;8.084;2023-10-13T06:04:15;23.15;;;14.10;;
20531;SDS011;10424;52.102;8.084;2023-10-13T06:07:00;23.00;;;14.13;;
20531;SDS011;10424;52.102;8.084;2023-10-13T06:09:48;21.65;;;13.27;;
20531;SDS011;10424;52.102;8.084;2023-10-13T06:12:34;19.50;;;13.02;;
20531;SDS011;10424;52.102;8.084;2023-10-13T06:15:18;21.13;;;13.70;;
20531;SDS011;10424;52.102;8.084;2023-10-13T06:18:03;24.55;;;15.13;;
20531;SDS011;10424;52.102;8.084;2023-10-13T06:20:49;22.50;;;13.45;;
20531;SDS011;10424;52.102;8.084;2023-10-13T06:23:34;22.20;;;12.50;;
20531;SDS011;10424;52.102;8.084;2023-10-13T06:26:18;21.45;;;14.40;;
20531;SDS011;10424;52.102;8.084;2023-10-13T06:29:04;23.73;;;15.27;;
20531;SDS011;10424;52.102;8.084;2023-10-13T06:31:33;24.20;;;15.40;;
20531;SDS011;10424;52.102;8.084;2023-10-13T06:34:01;24.45;;;14.43;;
20531;SDS011;10424;52.102;8.084;2023-10-13T06:36:29;23.70;;;14.20;;
20531;SDS011;10424;52.102;8.084;2023-10-13T06:38:58;23.15;;;14.30;;
20531;SDS011;10424;52.102;8.084;2023-10-13T06:41:39;26.05;;;14.82;;
20531;SDS011;10424;52.102;8.084;2023-10-13T06:44:08;24.02;;;13.57;;
20531;SDS011;10424;52.102;8.084;2023-10-13T06:46:40;20.25;;;12.93;;
20531;SDS011;10424;52.102;8.084;2023-10-13T06:49:08;19.95;;;13.05;;
20531;SDS011;10424;52.102;8.084;2023-10-13T06:51:38;18.75;;;11.00;;
20531;SDS011;10424;52.102;8.084;2023-10-13T06:54:06;18.80;;;11.18;;
20531;SDS011;10424;52.102;8.084;2023-10-13T06:56:44;18.63;;;11.52;;
20531;SDS011;10424;52.102;8.084;2023-10-13T06:59:13;13.05;;;7.10;;
20531;SDS011;10424;52.102;8.084;2023-10-13T07:01:41;14.25;;;8.75;;
20531;SDS011;10424;52.102;8.084;2023-10-13T07:04:10;19.00;;;10.50;;
20531;SDS011;10424;52.102;8.084;2023-10-13T07:06:41;15.35;;;9.15;;
20531;SDS011;10424;52.102;8.084;2023-10-13T07:09:13;14.23;;;9.75;;
20531;SDS011;10424;52.102;8.084;2023-10-13T07:12:02;10.98;;;6.22;;
20531;SDS011;10424;52.102;8.084;2023-10-13T07:14:33;11.55;;;7.18;;
20531;SDS011;10424;52.102;8.084;2023-10-13T07:17:02;16.13;;;9.63;;
20531;SDS011;10424;52.102;8.084;2023-10-13T07:19:30;16.33;;;9.52;;
20531;SDS011;10424;52.102;8.084;2023-10-13T07:21:59;15.35;;;8.73;;
20531;SDS011;10424;52.102;8.084;2023-10-13T07:24:44;11.85;;;7.20;;
20531;SDS011;10424;52.102;8.084;2023-10-13T07:27:14;12.13;;;7.15;;
20531;SDS011;10424;52.102;8.084;2023-10-13T07:29:50;14.48;;;8.90;;
20531;SDS011;10424;52.102;8.084;2023-10-13T07:32:22;13.23;;;8.88;;
20531;SDS011;10424;52.102;8.084;2023-10-13T07:34:52;14.02;;;9.35;;
20531;SDS011;10424;52.102;8.084;2023-10-13T07:37:22;14.63;;;9.07;;
20531;SDS011;10424;52.102;8.084;2023-10-13T07:39:54;15.25;;;8.18;;
20531;SDS011;10424;52.102;8.084;2023-10-13T07:42:26;14.95;;;7.28;;
20531;SDS011;10424;52.102;8.084;2023-10-13T07:44:58;14.10;;;8.57;;
20531;SDS011;10424;52.102;8.084;2023-10-13T07:47:29;12.15;;;8.52;;
20531;SDS011;10424;52.102;8.084;2023-10-13T07:49:58;13.70;;;8.45;;
20531;SDS011;10424;52.102;8.084;2023-10-13T07:52:26;16.55;;;10.93;;
20531;SDS011;10424;52.102;8.084;2023-10-13T07:55:02;14.27;;;7.88;;
20531;SDS011;10424;52.102;8.084;2023-10-13T07:57:39;12.00;;;8.57;;
20531;SDS011;10424;52.102;8.084;2023-10-13T08:00:21;13.88;;;8.18;;
20531;SDS011;10424;52.102;8.084;2023-10-13T08:03:12;10.88;;;6.90;;
20531;SDS011;10424;52.102;8.084;2023-10-13T08:05:53;13.63;;;8.02;;
20531;SDS011;10424;52.102;8.084;2023-10-13T08:08:30;12.95;;;8.25;;
20531;SDS011;10424;52.102;8.084;2023-10-13T08:11:03;13.60;;;8.45;;
20531;SDS011;10424;52.102;8.084;2023-10-13T08:13:37;11.65;;;7.70;;
20531;SDS011;10424;52.102;8.084;2023-10-13T08:16:06;15.93;;;7.57;;
20531;SDS011;10424;52.102;8.084;2023-10-13T08:18:34;11.98;;;7.50;;
20531;SDS011;10424;52.102;8.084;2023-10-13T08:21:06;12.40;;;7.20;;
20531;SDS011;10424;52.102;8.084;2023-10-13T08:23:41;10.35;;;6.18;;
20531;SDS011;10424;52.102;8.084;2023-10-13T08:26:25;8.65;;;4.63;;
20531;SDS011;10424;52.102;8.084;2023-10-13T08:29:09;11.57;;;4.75;;
20531;SDS011;10424;52.102;8.084;2023-10-13T08:31:55;10.55;;;5.45;;
20531;SDS011;10424;52.102;8.084;2023-10-13T08:34:39;5.47;;;3.47;;
20531;SDS011;10424;52.102;8.084;2023-10-13T08:37:25;9.23;;;5.85;;
20531;SDS011;10424;52.102;8.084;2023-10-13T08:39:55;11.68;;;5.35;;
20531;SDS011;10424;52.102;8.084;2023-10-13T08:42:48;6.25;;;3.92;;
20531;SDS011;10424;52.102;8.084;2023-10-13T08:45:37;11.98;;;5.18;;
20531;SDS011;10424;52.102;8.084;2023-10-13T08:48:25;5.80;;;3.65;;
20531;SDS011;10424;52.102;8.084;2023-10-13T08:50:57;6.55;;;3.25;;
20531;SDS011;10424;52.102;8.084;2023-10-13T08:53:37;7.57;;;4.28;;
20531;SDS011;10424;52.102;8.084;2023-10-13T08:56:17;9.00;;;4.40;;
20531;SDS011;10424;52.102;8.084;2023-10-13T08:58:58;11.07;;;3.70;;
20531;SDS011;10424;52.102;8.084;2023-10-13T09:01:31;7.55;;;4.07;;
20531;SDS011;10424;52.102;8.084;2023-10-13T09:04:12;10.68;;;3.92;;
20531;SDS011;10424;52.102;8.084;2023-10-13T09:06:47;8.25;;;3.45;;
20531;SDS011;10424;52.102;8.084;2023-10-13T09:09:26;6.85;;;3.95;;
20531;SDS011;10424;52.102;8.084;2023-10-13T09:11:53;9.73;;;4.45;;
20531;SDS011;10424;52.102;8.084;2023-10-13T09:14:33;13.38;;;3.97;;
20531;SDS011;10424;52.102;8.084;2023-10-13T09:17:05;11.57;;;4.95;;
20531;SDS011;10424;52.102;8.084;2023-10-13T09:20:00;11.00;;;4.25;;
20531;SDS011;10424;52.102;8.084;2023-10-13T09:22:49;10.55;;;4.78;;
20531;SDS011;10424;52.102;8.084;2023-10-13T09:25:21;12.43;;;5.10;;
20531;SDS011;10424;52.102;8.084;2023-10-13T09:27:49;13.60;;;5.32;;
20531;SDS011;10424;52.102;8.084;2023-10-13T09:30:18;12.05;;;5.18;;
20531;SDS011;10424;52.102;8.084;2023-10-13T09:32:58;9.27;;;4.28;;
20531;SDS011;10424;52.102;8.084;2023-10-13T09:35:30;13.50;;;4.03;;
20531;SDS011;10424;52.102;8.084;2023-10-13T09:37:59;17.20;;;5.50;;
20531;SDS011;10424;52.102;8.084;2023-10-13T09:40:27;15.75;;;4.70;;
20531;SDS011;10424;52.102;8.084;2023-10-13T09:42:59;12.55;;;4.80;;
20531;SDS011;10424;52.102;8.084;2023-10-13T09:45:32;11.27;;;4.00;;
20531;SDS011;10424;52.102;8.084;2023-10-13T09:48:02;12.18;;;4.07;;
20531;SDS011;10424;52.102;8.084;2023-10-13T09:50:36;10.85;;;4.30;;
20531;SDS011;10424;52.102;8.084;2023-10-13T09:53:06;14.13;;;4.45;;
20531;SDS011;10424;52.102;8.084;2023-10-13T09:55:36;8.93;;;4.07;;
20531;SDS011;10424;52.102;8.084;2023-10-13T09:58:05;12.52;;;4.05;;
20531;SDS011;10424;52.102;8.084;2023-10-13T10:00:37;7.05;;;3.47;;
20531;SDS011;10424;52.102;8.084;2023-10-13T10:03:12;7.07;;;3.42;;
20531;SDS011;10424;52.102;8.084;2023-10-13T10:06:05;13.45;;;4.32;;
20531;SDS011;10424;52.102;8.084;2023-10-13T10:08:33;11.40;;;3.38;;
20531;SDS011;10424;52.102;8.084;2023-10-13T10:11:17;11.43;;;4.10;;
20531;SDS011;10424;52.102;8.084;2023-10-13T10:13:47;8.45;;;4.20;;
20531;SDS011;10424;52.102;8.084;2023-10-13T10:16:20;9.85;;;3.50;;
20531;SDS011;10424;52.102;8.084;2023-10-13T10:18:59;12.85;;;4.32;;
20531;SDS011;10424;52.102;8.084;2023-10-13T10:21:33;14.30;;;4.60;;
20531;SDS011;10424;52.102;8.084;2023-10-13T10:24:01;11.48;;;4.03;;
20531;SDS011;10424;52.102;8.084;2023-10-13T10:26:33;12.40;;;3.75;;
20531;SDS011;10424;52.102;8.084;2023-10-13T10:29:10;11.73;;;3.70;;
20531;SDS011;10424;52.102;8.084;2023-10-13T10:31:39;13.38;;;3.45;;
20531;SDS011;10424;52.102;8.084;2023-10-13T10:34:11;11.27;;;3.33;;
20531;SDS011;10424;52.102;8.084;2023-10-13T10:36:40;9.80;;;4.13;;
20531;SDS011;10424;52.102;8.084;2023-10-13T10:39:11;11.98;;;3.50;;
20531;SDS011;10424;52.102;8.084;2023-10-13T10:41:39;13.98;;;4.15;;
20531;SDS011;10424;52.102;8.084;2023-10-13T10:44:17;10.55;;;4.35;;
20531;SDS011;10424;52.102;8.084;2023-10-13T10:47:09;8.40;;;3.42;;
20531;SDS011;10424;52.102;8.084;2023-10-13T10:49:37;10.25;;;3.60;;
20531;SDS011;10424;52.102;8.084;2023-10-13T10:52:07;14.38;;;4.22;;
20531;SDS011;10424;52.102;8.084;2023-10-13T10:54:43;15.52;;;4.35;;
20531;SDS011;10424;52.102;8.084;2023-10-13T10:57:16;13.13;;;4.13;;
20531;SDS011;10424;52.102;8.084;2023-10-13T10:59:44;13.35;;;4.68;;
20531;SDS011;10424;52.102;8.084;2023-10-13T11:02:11;10.52;;;4.45;;
20531;SDS011;10424;52.102;8.084;2023-10-13T11:04:43;14.90;;;4.00;;
20531;SDS011;10424;52.102;8.084;2023-10-13T11:07:22;15.35;;;4.57;;
20531;SDS011;10424;52.102;8.084;2023-10-13T11:09:50;16.63;;;4.13;;
20531;SDS011;10424;52.102;8.084;2023-10-13T11:12:30;14.07;;;4.10;;
20531;SDS011;10424;52.102;8.084;2023-10-13T11:14:59;16.35;;;4.28;;
20531;SDS011;10424;52.102;8.084;2023-10-13T11:17:27;12.85;;;4.72;;
20531;SDS011;10424;52.102;8.084;2023-10-13T11:20:10;9.07;;;3.72;;
20531;SDS011;10424;52.102;8.084;2023-10-13T11:22:52;12.05;;;4.13;;
20531;SDS011;10424;52.102;8.084;2023-10-13T11:25:20;15.25;;;4.15;;
20531;SDS011;10424;52.102;8.084;2023-10-13T11:27:49;14.65;;;3.80;;
20531;SDS011;10424;52.102;8.084;2023-10-13T11:30:23;15.30;;;4.55;;
20531;SDS011;10424;52.102;8.084;2023-10-13T11:33:01;11.77;;;3.92;;
20531;SDS011;10424;52.102;8.084;2023-10-13T11:35:30;17.33;;;4.95;;
20531;SDS011;10424;52.102;8.084;2023-10-13T11:38:13;8.23;;;3.88;;
20531;SDS011;10424;52.102;8.084;2023-10-13T11:40:50;14.82;;;4.45;;
20531;SDS011;10424;52.102;8.084;2023-10-13T11:43:32;9.02;;;3.55;;
20531;SDS011;10424;52.102;8.084;2023-10-13T11:46:10;15.38;;;4.85;;
20531;SDS011;10424;52.102;8.084;2023-10-13T11:48:40;14.85;;;4.80;;
20531;SDS011;10424;52.102;8.084;2023-10-13T11:51:07;16.17;;;5.03;;
20531;SDS011;10424;52.102;8.084;2023-10-13T11:53:43;8.55;;;3.40;;
20531;SDS011;10424;52.102;8.084;2023-10-13T11:56:17;13.80;;;4.97;;
20531;SDS011;10424;52.102;8.084;2023-10-13T11:58:46;16.85;;;4.85;;
20531;SDS011;10424;52.102;8.084;2023-10-13T12:01:13;14.02;;;4.70;;
20531;SDS011;10424;52.102;8.084;2023-10-13T12:03:46;10.05;;;2.97;;
20531;SDS011;10424;52.102;8.084;2023-10-13T12:06:32;13.88;;;4.68;;
20531;SDS011;10424;52.102;8.084;2023-10-13T12:09:13;17.13;;;5.00;;
20531;SDS011;10424;52.102;8.084;2023-10-13T12:12:05;14.93;;;4.18;;
20531;SDS011;10424;52.102;8.084;2023-10-13T12:14:33;15.57;;;5.50;;
20531;SDS011;10424;52.102;8.084;2023-10-13T12:17:03;17.25;;;4.90;;
20531;SDS011;10424;52.102;8.084;2023-10-13T12:19:36;18.98;;;5.72;;
20531;SDS011;10424;52.102;8.084;2023-10-13T12:22:04;25.85;;;5.20;;
20531;SDS011;10424;52.102;8.084;2023-10-13T12:24:35;15.35;;;5.88;;
20531;SDS011;10424;52.102;8.084;2023-10-13T12:27:08;13.32;;;4.82;;
20531;SDS011;10424;52.102;8.084;2023-10-13T12:29:52;16.55;;;5.30;;
20531;SDS011;10424;52.102;8.084;2023-10-13T12:32:24;16.15;;;4.93;;
20531;SDS011;10424;52.102;8.084;2023-10-13T12:34:56;19.55;;;5.22;;
20531;SDS011;10424;52.102;8.084;2023-10-13T12:37:26;13.23;;;4.95;;
20531;SDS011;10424;52.102;8.084;2023-10-13T12:40:16;9.73;;;4.95;;
20531;SDS011;10424;52.102;8.084;2023-10-13T12:43:02;21.27;;;5.65;;
20531;SDS011;10424;52.102;8.084;2023-10-13T12:45:47;17.42;;;6.32;;
20531;SDS011;10424;52.102;8.084;2023-10-13T12:48:32;19.30;;;5.63;;
20531;SDS011;10424;52.102;8.084;2023-10-13T12:51:18;16.63;;;5.10;;
20531;SDS011;10424;52.102;8.084;2023-10-13T12:54:05;13.30;;;3.80;;
20531;SDS011;10424;52.102;8.084;2023-10-13T12:56:40;14.88;;;5.53;;
20531;SDS011;10424;52.102;8.084;2023-10-13T12:59:08;17.38;;;4.90;;
20531;SDS011;10424;52.102;8.084;2023-10-13T13:01:38;17.33;;;5.68;;
20531;SDS011;10424;52.102;8.084;2023-10-13T13:04:08;15.57;;;5.30;;
20531;SDS011;10424;52.102;8.084;2023-10-13T13:06:43;15.10;;;4.53;;
20531;SDS011;10424;52.102;8.084;2023-10-13T13:09:11;15.95;;;5.20;;
20531;SDS011;10424;52.102;8.084;2023-10-13T13:11:38;8.80;;;3.65;;
20531;SDS011;10424;52.102;8.084;2023-10-13T13:14:07;16.95;;;5.50;;
20531;SDS011;10424;52.102;8.084;2023-10-13T13:16:35;18.67;;;4.43;;
20531;SDS011;10424;52.102;8.084;2023-10-13T13:19:04;8.00;;;3.20;;
20531;SDS011;10424;52.102;8.084;2023-10-13T13:21:36;21.05;;;4.68;;
20531;SDS011;10424;52.102;8.084;2023-10-13T13:24:04;15.13;;;4.97;;
20531;SDS011;10424;52.102;8.084;2023-10-13T13:26:35;13.57;;;5.20;;
20531;SDS011;10424;52.102;8.084;2023-10-13T13:29:05;11.18;;;4.78;;
20531;SDS011;10424;52.102;8.084;2023-10-13T13:31:35;12.38;;;4.38;;
20531;SDS011;10424;52.102;8.084;2023-10-13T13:34:06;17.48;;;4.50;;
20531;SDS011;10424;52.102;8.084;2023-10-13T13:36:35;16.60;;;5.18;;
20531;SDS011;10424;52.102;8.084;2023-10-13T13:39:03;13.63;;;4.68;;
20531;SDS011;10424;52.102;8.084;2023-10-13T13:41:31;11.60;;;5.45;;
20531;SDS011;10424;52.102;8.084;2023-10-13T13:43:59;21.95;;;5.40;;
20531;SDS011;10424;52.102;8.084;2023-10-13T13:46:39;12.07;;;4.55;;
20531;SDS011;10424;52.102;8.084;2023-10-13T13:49:10;20.75;;;4.63;;
20531;SDS011;10424;52.102;8.084;2023-10-13T13:51:44;17.73;;;6.05;;
20531;SDS011;10424;52.102;8.084;2023-10-13T13:54:17;13.05;;;5.35;;
20531;SDS011;10424;52.102;8.084;2023-10-13T13:56:44;13.05;;;4.85;;
20531;SDS011;10424;52.102;8.084;2023-10-13T13:59:12;17.63;;;5.18;;
20531;SDS011;10424;52.102;8.084;2023-10-13T14:01:42;12.00;;;4.60;;
20531;SDS011;10424;52.102;8.084;2023-10-13T14:04:10;16.80;;;5.30;;
20531;SDS011;10424;52.102;8.084;2023-10-13T14:06:39;18.92;;;5.78;;
20531;SDS011;10424;52.102;8.084;2023-10-13T14:09:06;16.85;;;5.30;;
20531;SDS011;10424;52.102;8.084;2023-10-13T14:11:41;14.23;;;5.70;;
20531;SDS011;10424;52.102;8.084;2023-10-13T14:14:37;16.92;;;5.32;;
20531;SDS011;10424;52.102;8.084;2023-10-13T14:17:14;13.13;;;4.85;;
20531;SDS011;10424;52.102;8.084;2023-10-13T14:19:41;21.17;;;5.65;;
20531;SDS011;10424;52.102;8.084;2023-10-13T14:22:10;17.35;;;5.85;;
20531;SDS011;10424;52.102;8.084;2023-10-13T14:24:38;12.27;;;5.28;;
20531;SDS011;10424;52.102;8.084;2023-10-13T14:27:12;21.42;;;5.70;;
20531;SDS011;10424;52.102;8.084;2023-10-13T14:29:42;15.00;;;5.22;;
20531;SDS011;10424;52.102;8.084;2023-10-13T14:32:10;20.10;;;5.53;;
20531;SDS011;10424;52.102;8.084;2023-10-13T14:34:40;14.77;;;4.82;;
20531;SDS011;10424;52.102;8.084;2023-10-13T14:37:08;13.55;;;4.70;;
20531;SDS011;10424;52.102;8.084;2023-10-13T14:39:38;21.50;;;5.35;;
20531;SDS011;10424;52.102;8.084;2023-10-13T14:42:05;15.10;;;5.80;;
20531;SDS011;10424;52.102;8.084;2023-10-13T14:44:33;16.77;;;6.30;;
20531;SDS011;10424;52.102;8.084;2023-10-13T14:47:00;17.92;;;6.03;;
20531;SDS011;10424;52.102;8.084;2023-10-13T14:49:30;16.80;;;5.20;;
20531;SDS011;10424;52.102;8.084;2023-10-13T14:52:02;13.48;;;4.07;;
20531;SDS011;10424;52.102;8.084;2023-10-13T14:54:31;17.20;;;5.20;;
20531;SDS011;10424;52.102;8.084;2023-10-13T14:57:01;14.40;;;4.65;;
20531;SDS011;10424;52.102;8.084;2023-10-13T14:59:28;18.55;;;5.22;;
20531;SDS011;10424;52.102;8.084;2023-10-13T15:01:58;19.33;;;5.30;;
20531;SDS011;10424;52.102;8.084;2023-10-13T15:04:26;14.10;;;5.18;;
20531;SDS011;10424;52.102;8.084;2023-10-13T15:06:57;18.88;;;5.40;;
20531;SDS011;10424;52.102;8.084;2023-10-13T15:09:28;19.92;;;4.65;;